Time;durP1;ratioP1;P1;durP2;ratioP2;P2;SDS_P1;SDS_P2;PMS_P1;PMS_P2;Temp;Humidity;BMP_temperature;BMP_pressure;BME280_temperature;BME280_humidity;BME280_pressure;Samples;Min_cycle;Max_cycle;Signal;HPM_P1;HPM_P2
2022/08/02 00:00:27;;;;;;;2.35;1.45;;;27.40;46.80;;;;;;5109193;27;45477;-69
2022/08/02 00:02:54;;;;;;;1.95;1.58;;;27.40;47.10;;;;;;5109316;27;45334;-70
2022/08/02 00:05:21;;;;;;;1.73;1.58;;;27.40;46.90;;;;;;5109372;27;45202;-69
2022/08/02 00:07:48;;;;;;;1.42;1.38;;;27.40;46.90;;;;;;5109498;27;45447;-69
2022/08/02 00:10:15;;;;;;;2.50;1.50;;;27.40;46.90;;;;;;5109303;27;46698;-68
2022/08/02 00:12:43;;;;;;;2.65;1.33;;;27.40;47.10;;;;;;5109045;27;45363;-68
2022/08/02 00:15:11;;;;;;;1.35;1.25;;;27.40;46.90;;;;;;5109387;27;45387;-69
2022/08/02 00:17:38;;;;;;;2.85;1.60;;;27.40;46.80;;;;;;5109525;27;45525;-69
2022/08/02 00:20:06;;;;;;;2.90;1.60;;;27.30;46.80;;;;;;5108905;27;46716;-69
2022/08/02 00:22:32;;;;;;;1.50;1.33;;;27.30;46.70;;;;;;5109010;27;45252;-69
2022/08/02 00:24:59;;;;;;;1.48;1.27;;;27.30;46.80;;;;;;5109162;27;45352;-69
2022/08/02 00:27:26;;;;;;;1.50;1.40;;;27.30;46.90;;;;;;5109258;27;45239;-69
2022/08/02 00:29:54;;;;;;;1.85;1.40;;;27.30;47.10;;;;;;5108817;27;46449;-68
2022/08/02 00:32:21;;;;;;;1.35;1.20;;;27.30;46.80;;;;;;5108916;27;45348;-69
2022/08/02 00:34:48;;;;;;;2.50;1.40;;;27.30;46.80;;;;;;5109095;27;45347;-69
2022/08/02 00:37:14;;;;;;;1.65;1.38;;;27.30;46.70;;;;;;5108533;27;45261;-69
2022/08/02 00:39:41;;;;;;;1.50;1.40;;;27.20;46.90;;;;;;5108535;27;46353;-69
2022/08/02 00:42:08;;;;;;;1.10;1.10;;;27.20;46.90;;;;;;5108739;27;45264;-69
2022/08/02 00:44:35;;;;;;;2.85;1.30;;;27.20;46.90;;;;;;5108839;27;45163;-69
2022/08/02 00:47:03;;;;;;;1.00;1.00;;;27.20;46.90;;;;;;5108930;27;45451;-69
2022/08/02 00:49:30;;;;;;;1.17;1.17;;;27.20;47.50;;;;;;5108762;27;46660;-69
2022/08/02 00:51:57;;;;;;;1.45;1.35;;;27.20;47.10;;;;;;5108660;27;45236;-69
2022/08/02 00:54:24;;;;;;;1.38;1.27;;;27.20;47.00;;;;;;5108878;27;45209;-69
2022/08/02 00:56:51;;;;;;;1.40;1.30;;;27.20;46.90;;;;;;5108987;27;45363;-69
2022/08/02 00:59:18;;;;;;;1.27;1.17;;;27.10;46.90;;;;;;5108355;27;47344;-69
2022/08/02 01:01:44;;;;;;;1.23;1.13;;;27.10;46.70;;;;;;5108224;27;45249;-69
2022/08/02 01:04:13;;;;;;;2.28;1.40;;;27.10;46.80;;;;;;5107437;27;45265;-69
2022/08/02 01:06:41;;;;;;;1.20;1.10;;;27.10;46.70;;;;;;5108759;27;45109;-69
2022/08/02 01:09:08;;;;;;;1.20;1.10;;;27.10;46.80;;;;;;5108328;27;45630;-69
2022/08/02 01:11:35;;;;;;;1.17;1.08;;;27.10;46.80;;;;;;5108281;27;45271;-69
2022/08/02 01:14:04;;;;;;;2.00;1.27;;;27.10;46.90;;;;;;5108239;27;45202;-69
2022/08/02 01:16:33;;;;;;;1.30;1.10;;;27.10;46.90;;;;;;5108515;27;45222;-69
2022/08/02 01:19:02;;;;;;;1.10;1.10;;;27.10;46.90;;;;;;5107929;27;46381;-69
2022/08/02 01:21:47;;;;;;;1.20;1.10;;;27.00;46.70;;;;;;5108030;27;45180;-69
2022/08/02 01:24:22;;;;;;;1.33;1.23;;;27.00;46.80;;;;;;5108068;27;45200;-69
2022/08/02 01:26:50;;;;;;;1.10;1.05;;;27.00;46.80;;;;;;5108307;27;45257;-69
2022/08/02 01:29:20;;;;;;;0.98;0.98;;;27.00;47.00;;;;;;5107534;27;46774;-69
2022/08/02 01:31:49;;;;;;;1.10;1.00;;;27.00;47.30;;;;;;5107578;27;45214;-69
2022/08/02 01:34:18;;;;;;;1.20;1.10;;;27.00;46.80;;;;;;5107362;27;45130;-69
2022/08/02 01:36:48;;;;;;;0.88;0.88;;;26.90;46.90;;;;;;5108181;27;45282;-69
2022/08/02 01:39:17;;;;;;;1.67;1.10;;;26.90;46.90;;;;;;5107324;27;45312;-69
2022/08/02 01:41:45;;;;;;;1.40;1.30;;;26.90;46.70;;;;;;5107787;27;45355;-69
2022/08/02 01:44:12;;;;;;;1.10;0.95;;;26.90;46.90;;;;;;5107992;27;45204;-69
2022/08/02 01:46:41;;;;;;;1.30;1.20;;;26.90;46.70;;;;;;5108035;27;45186;-69
2022/08/02 01:49:10;;;;;;;0.95;0.95;;;26.90;47.10;;;;;;5107507;27;45297;-69
2022/08/02 01:54:22;;;;;;;1.02;1.00;;;26.80;47.00;;;;;;5105099;27;45312;-69
2022/08/02 01:56:48;;;;;;;1.08;1.00;;;26.80;47.00;;;;;;5107758;27;45396;-69
2022/08/02 01:59:18;;;;;;;1.83;1.20;;;26.80;46.90;;;;;;5107251;27;46724;-69
2022/08/02 02:01:46;;;;;;;1.00;1.00;;;26.80;46.80;;;;;;5107487;27;45271;-69
2022/08/02 02:04:13;;;;;;;1.38;1.10;;;26.80;47.00;;;;;;5107462;27;45169;-69
2022/08/02 02:06:40;;;;;;;1.15;1.08;;;26.70;47.00;;;;;;5107702;27;45400;-69
2022/08/02 02:09:07;;;;;;;1.45;1.00;;;26.70;47.20;;;;;;5107276;27;45387;-69
2022/08/02 02:11:34;;;;;;;1.10;1.00;;;26.70;47.00;;;;;;5107479;27;45290;-69
2022/08/02 02:14:01;;;;;;;1.13;1.00;;;26.70;47.10;;;;;;5106880;27;45213;-69
2022/08/02 02:16:28;;;;;;;1.10;1.00;;;26.70;47.20;;;;;;5107663;27;45165;-69
2022/08/02 02:18:56;;;;;;;1.20;1.10;;;26.70;47.20;;;;;;5107208;27;45222;-70
2022/08/02 02:21:23;;;;;;;0.90;0.90;;;26.70;47.10;;;;;;5107271;27;45320;-69
2022/08/02 02:23:49;;;;;;;1.10;1.05;;;26.70;47.00;;;;;;5107272;27;45220;-69
2022/08/02 02:26:16;;;;;;;0.93;0.93;;;26.70;47.10;;;;;;5107539;27;45384;-69
2022/08/02 02:28:43;;;;;;;3.10;0.88;;;26.60;47.10;;;;;;5106449;27;46721;-69
2022/08/02 02:31:11;;;;;;;1.67;1.00;;;26.60;47.10;;;;;;5106696;27;45194;-69
2022/08/02 02:33:40;;;;;;;1.00;1.00;;;26.60;47.10;;;;;;5107158;27;45291;-69
2022/08/02 02:36:09;;;;;;;1.10;1.10;;;26.60;47.10;;;;;;5107278;27;45224;-69
2022/08/02 02:38:36;;;;;;;2.15;1.02;;;26.60;47.00;;;;;;5106525;27;47341;-69
2022/08/02 02:41:04;;;;;;;1.08;1.00;;;26.50;47.00;;;;;;5107088;27;45126;-69
2022/08/02 02:43:31;;;;;;;0.90;0.90;;;26.50;47.10;;;;;;5107214;27;45280;-69
2022/08/02 02:45:58;;;;;;;1.30;1.08;;;26.50;47.00;;;;;;5107210;27;45237;-69
2022/08/02 02:48:25;;;;;;;1.70;1.20;;;26.50;47.00;;;;;;5106840;27;47417;-69
2022/08/02 02:50:52;;;;;;;1.27;0.70;;;26.50;47.10;;;;;;5106855;27;45138;-69
2022/08/02 02:53:20;;;;;;;1.15;0.90;;;26.50;47.10;;;;;;5106849;27;45241;-69
2022/08/02 02:55:47;;;;;;;1.10;1.00;;;26.40;46.90;;;;;;5107051;27;45513;-69
2022/08/02 02:58:13;;;;;;;1.02;0.93;;;26.40;46.90;;;;;;5106687;27;46299;-69
2022/08/02 03:03:24;;;;;;;1.15;1.10;;;26.40;46.80;;;;;;5104353;27;45200;-69
2022/08/02 03:05:51;;;;;;;1.20;1.20;;;26.40;46.90;;;;;;5106990;27;45124;-69
2022/08/02 03:08:19;;;;;;;0.98;0.90;;;26.40;46.90;;;;;;5106813;27;46384;-69
2022/08/02 03:10:46;;;;;;;2.53;1.00;;;26.40;47.00;;;;;;5106780;27;45344;-69
2022/08/02 03:13:13;;;;;;;1.00;0.90;;;26.40;47.00;;;;;;5106713;27;45317;-69
2022/08/02 03:15:40;;;;;;;0.90;0.90;;;26.40;47.00;;;;;;5106796;27;45128;-69
2022/08/02 03:18:07;;;;;;;2.58;1.00;;;26.40;46.80;;;;;;5106324;27;46621;-69
2022/08/02 03:20:34;;;;;;;0.80;0.80;;;26.30;46.90;;;;;;5105957;27;45289;-69
2022/08/02 03:23:01;;;;;;;0.90;0.90;;;26.30;46.80;;;;;;5106367;27;45349;-69
2022/08/02 03:25:29;;;;;;;0.90;0.90;;;26.30;47.00;;;;;;5106904;27;45357;-69
2022/08/02 03:27:56;;;;;;;0.90;0.90;;;26.30;46.80;;;;;;5109863;27;45228;-69
2022/08/02 03:30:26;;;;;;;1.10;1.00;;;26.30;47.00;;;;;;5109708;27;45252;-69
2022/08/02 03:32:53;;;;;;;1.00;1.00;;;26.30;47.00;;;;;;5110102;27;45288;-69
2022/08/02 03:35:20;;;;;;;0.90;0.90;;;26.30;47.10;;;;;;5110011;27;45447;-69
2022/08/02 03:37:46;;;;;;;1.23;1.05;;;26.30;47.10;;;;;;5109784;27;45295;-69
2022/08/02 03:40:13;;;;;;;1.65;0.93;;;26.30;47.10;;;;;;5109656;27;45394;-69
2022/08/02 03:42:42;;;;;;;0.93;0.90;;;26.20;47.10;;;;;;5110236;27;45362;-69
2022/08/02 03:45:10;;;;;;;1.40;1.00;;;26.20;47.60;;;;;;5109962;27;45174;-69
2022/08/02 03:47:37;;;;;;;1.10;1.00;;;26.20;47.00;;;;;;5109559;27;45467;-69
2022/08/02 03:50:05;;;;;;;1.10;1.00;;;26.20;47.00;;;;;;5109548;27;45246;-69
2022/08/02 03:52:32;;;;;;;1.40;1.00;;;26.20;47.00;;;;;;5109782;27;45363;-69
2022/08/02 03:54:58;;;;;;;1.20;1.10;;;26.10;47.00;;;;;;5109932;27;45227;-69
2022/08/02 03:57:25;;;;;;;0.95;0.80;;;26.10;47.00;;;;;;5109237;27;46713;-69
2022/08/02 03:59:53;;;;;;;1.00;1.00;;;26.10;47.00;;;;;;5109347;27;45123;-69
2022/08/02 04:02:20;;;;;;;0.80;0.80;;;26.10;47.00;;;;;;5109877;27;45289;-70
2022/08/02 04:04:47;;;;;;;1.55;0.90;;;26.10;47.00;;;;;;5109512;27;45457;-69
2022/08/02 04:07:14;;;;;;;0.82;0.82;;;26.10;47.10;;;;;;5108764;27;47319;-68
2022/08/02 04:09:40;;;;;;;1.25;1.10;;;26.10;47.00;;;;;;5108952;27;45257;-68
2022/08/02 04:12:07;;;;;;;1.77;1.00;;;26.00;47.10;;;;;;5109376;27;45131;-69
2022/08/02 04:14:35;;;;;;;1.02;0.90;;;26.00;47.00;;;;;;5109371;27;45434;-69
2022/08/02 04:17:05;;;;;;;1.05;1.00;;;26.00;47.00;;;;;;5108907;27;46679;-69
2022/08/02 04:19:34;;;;;;;0.80;0.80;;;26.00;47.00;;;;;;5109077;27;45198;-69
2022/08/02 04:22:03;;;;;;;1.05;1.05;;;26.00;47.00;;;;;;5109149;27;45298;-69
2022/08/02 04:24:34;;;;;;;0.95;0.95;;;26.00;47.00;;;;;;5109441;27;45255;-69
2022/08/02 04:27:01;;;;;;;0.90;0.90;;;26.00;47.10;;;;;;5108858;27;45371;-69
2022/08/02 04:29:28;;;;;;;3.25;1.00;;;26.00;47.00;;;;;;5108619;27;45218;-69
2022/08/02 04:31:54;;;;;;;1.20;1.02;;;25.90;46.90;;;;;;5109046;27;45339;-69
2022/08/02 04:34:23;;;;;;;1.40;0.90;;;25.90;47.00;;;;;;5109248;27;45375;-69
2022/08/02 04:36:49;;;;;;;0.90;0.90;;;25.90;47.00;;;;;;5108594;27;46445;-69
2022/08/02 04:39:16;;;;;;;0.85;0.85;;;25.90;47.00;;;;;;5108688;27;45280;-69
2022/08/02 04:41:45;;;;;;;0.98;0.98;;;25.90;47.00;;;;;;5109055;27;45244;-69
2022/08/02 04:44:11;;;;;;;1.75;1.10;;;25.90;47.00;;;;;;5108901;27;45453;-69
2022/08/02 04:46:38;;;;;;;1.05;1.00;;;25.90;47.00;;;;;;5108412;27;46391;-69
2022/08/02 04:49:05;;;;;;;1.77;1.10;;;25.90;46.80;;;;;;5108602;27;45383;-69
2022/08/02 04:51:36;;;;;;;0.90;0.90;;;25.90;47.00;;;;;;5108615;27;45252;-69
2022/08/02 04:54:03;;;;;;;0.80;0.80;;;25.90;46.90;;;;;;5108884;27;45202;-69
2022/08/02 04:56:29;;;;;;;0.98;0.88;;;25.90;46.60;;;;;;5108075;27;46419;-69
2022/08/02 04:58:56;;;;;;;1.02;1.02;;;25.90;46.90;;;;;;5108185;27;45290;-69
2022/08/02 05:01:23;;;;;;;0.90;0.90;;;25.90;46.70;;;;;;5108577;27;45260;-69
2022/08/02 05:03:50;;;;;;;0.90;0.90;;;25.90;46.70;;;;;;5108779;27;45178;-69
2022/08/02 05:06:18;;;;;;;0.80;0.80;;;25.90;46.60;;;;;;5108360;27;45312;-69
2022/08/02 05:08:46;;;;;;;1.23;1.00;;;25.80;46.50;;;;;;5108362;27;45296;-69
2022/08/02 05:11:13;;;;;;;1.17;0.80;;;25.90;46.70;;;;;;5108680;27;45324;-69
2022/08/02 05:13:41;;;;;;;1.40;0.90;;;25.80;46.70;;;;;;5108601;27;45178;-69
2022/08/02 05:16:07;;;;;;;1.42;0.88;;;25.80;46.70;;;;;;5108166;27;45221;-69
2022/08/02 05:18:34;;;;;;;0.77;0.77;;;25.80;46.70;;;;;;5108361;27;45255;-69
2022/08/02 05:21:01;;;;;;;1.10;0.90;;;25.80;46.70;;;;;;5108325;27;45333;-69
2022/08/02 05:23:28;;;;;;;0.82;0.80;;;25.80;46.70;;;;;;5108425;27;45295;-69
2022/08/02 05:25:56;;;;;;;0.82;0.82;;;25.80;46.70;;;;;;5108117;27;46418;-70
2022/08/02 05:28:23;;;;;;;1.08;0.80;;;25.80;46.70;;;;;;5108129;27;45422;-69
2022/08/02 05:30:50;;;;;;;1.23;1.00;;;25.80;46.70;;;;;;5108069;27;45316;-69
2022/08/02 05:33:17;;;;;;;0.82;0.82;;;25.80;46.80;;;;;;5108427;27;45353;-69
2022/08/02 05:35:44;;;;;;;1.95;0.90;;;25.80;46.80;;;;;;5107819;27;46367;-69
2022/08/02 05:38:11;;;;;;;0.95;0.93;;;25.80;46.80;;;;;;5107702;27;45239;-69
2022/08/02 05:40:37;;;;;;;1.08;1.02;;;25.80;46.70;;;;;;5108031;27;45202;-69
2022/08/02 05:43:13;;;;;;;2.20;0.80;;;25.80;46.90;;;;;;5107977;27;45169;-69
2022/08/02 05:45:39;;;;;;;1.00;1.00;;;25.80;46.80;;;;;;5107178;27;46905;-69
2022/08/02 05:48:06;;;;;;;1.45;0.82;;;25.80;46.80;;;;;;5107738;27;45479;-69
2022/08/02 05:50:34;;;;;;;0.85;0.80;;;25.80;46.80;;;;;;5107270;27;45363;-69
2022/08/02 05:53:03;;;;;;;1.08;0.98;;;25.80;46.80;;;;;;5107867;27;45447;-69
2022/08/02 05:55:33;;;;;;;0.80;0.80;;;25.80;46.80;;;;;;5107268;27;46749;-69
2022/08/02 05:58:03;;;;;;;1.10;1.10;;;25.80;46.90;;;;;;5107539;27;45265;-69
2022/08/02 06:00:32;;;;;;;1.30;1.08;;;25.80;46.90;;;;;;5107501;27;45133;-69
2022/08/02 06:03:15;;;;;;;1.27;0.82;;;25.80;47.00;;;;;;5107633;27;45407;-69
2022/08/02 06:05:44;;;;;;;1.67;0.70;;;25.80;47.00;;;;;;5107360;27;46655;-69
2022/08/02 06:08:13;;;;;;;0.70;0.70;;;25.80;47.00;;;;;;5107442;27;45231;-69
2022/08/02 06:10:40;;;;;;;1.05;1.00;;;25.80;47.00;;;;;;5107392;27;45147;-69
2022/08/02 06:13:08;;;;;;;0.90;0.80;;;25.80;47.10;;;;;;5107569;27;45416;-69
2022/08/02 06:15:36;;;;;;;1.85;1.00;;;25.70;47.10;;;;;;5106978;27;46672;-70
2022/08/02 06:18:04;;;;;;;1.00;1.00;;;25.70;47.10;;;;;;5107080;27;45201;-69
2022/08/02 06:20:34;;;;;;;1.00;0.90;;;25.70;47.20;;;;;;5107288;27;45529;-70
2022/08/02 06:23:01;;;;;;;0.77;0.77;;;25.70;47.10;;;;;;5107509;27;45526;-69
2022/08/02 06:25:28;;;;;;;0.90;0.90;;;25.70;47.30;;;;;;5107038;27;46380;-70
2022/08/02 06:27:55;;;;;;;0.90;0.90;;;25.70;47.20;;;;;;5107110;27;45203;-70
2022/08/02 06:30:22;;;;;;;1.02;1.02;;;25.80;47.30;;;;;;5106696;27;45349;-70
2022/08/02 06:32:51;;;;;;;0.90;0.85;;;25.80;47.20;;;;;;5107269;27;45390;-69
2022/08/02 06:35:17;;;;;;;1.85;1.00;;;25.80;47.20;;;;;;5106810;27;45154;-69
2022/08/02 06:37:47;;;;;;;0.90;0.90;;;25.80;47.30;;;;;;5106994;27;45148;-69
2022/08/02 06:40:18;;;;;;;0.82;0.82;;;25.80;47.30;;;;;;5106916;27;45347;-69
2022/08/02 06:42:56;;;;;;;1.10;0.90;;;25.80;47.40;;;;;;5106981;27;45399;-69
2022/08/02 06:45:23;;;;;;;1.23;0.88;;;25.80;47.40;;;;;;5106667;27;45465;-69
2022/08/02 06:47:51;;;;;;;1.02;0.93;;;25.80;47.50;;;;;;5106578;27;45322;-70
2022/08/02 06:50:18;;;;;;;1.30;1.10;;;25.80;47.40;;;;;;5106986;27;45134;-70
2022/08/02 06:52:45;;;;;;;0.90;0.90;;;25.80;47.50;;;;;;5107298;27;45169;-69
2022/08/02 06:55:11;;;;;;;1.10;1.00;;;25.80;47.50;;;;;;5106495;27;45571;-70
2022/08/02 06:57:38;;;;;;;1.65;0.80;;;25.80;47.50;;;;;;5107050;27;45418;-70
2022/08/02 07:00:08;;;;;;;1.00;0.95;;;25.80;47.40;;;;;;5106622;27;45264;-70
2022/08/02 07:02:35;;;;;;;0.90;0.90;;;25.80;47.40;;;;;;5109954;27;45187;-70
2022/08/02 07:05:03;;;;;;;1.40;1.00;;;25.80;47.50;;;;;;5110188;27;45466;-70
2022/08/02 07:07:30;;;;;;;0.90;0.90;;;25.90;47.50;;;;;;5110334;27;45270;-70
2022/08/02 07:09:57;;;;;;;0.90;0.90;;;25.90;47.50;;;;;;5110486;27;45210;-70
2022/08/02 07:12:24;;;;;;;1.00;1.00;;;25.90;47.40;;;;;;5110889;27;45478;-70
2022/08/02 07:14:51;;;;;;;1.00;1.00;;;25.90;47.50;;;;;;5110104;27;46512;-70
2022/08/02 07:17:18;;;;;;;0.88;0.88;;;25.90;47.60;;;;;;5110444;27;45327;-70
2022/08/02 07:19:45;;;;;;;1.02;1.00;;;25.90;47.60;;;;;;5110304;27;45335;-70
2022/08/02 07:22:13;;;;;;;0.90;0.90;;;25.90;47.50;;;;;;5110267;27;45213;-70
2022/08/02 07:24:40;;;;;;;1.40;1.00;;;25.90;47.60;;;;;;5109945;27;45214;-70
2022/08/02 07:27:07;;;;;;;0.88;0.88;;;25.90;47.40;;;;;;5109928;27;45298;-70
2022/08/02 07:29:33;;;;;;;1.58;0.98;;;25.90;47.50;;;;;;5109986;27;45399;-70
2022/08/02 07:32:00;;;;;;;0.90;0.80;;;25.90;47.50;;;;;;5109596;27;45451;-69
2022/08/02 07:34:27;;;;;;;1.08;1.08;;;26.00;47.50;;;;;;5109388;27;46344;-70
2022/08/02 07:36:54;;;;;;;0.90;0.90;;;26.00;48.00;;;;;;5109784;27;45218;-70
2022/08/02 07:39:22;;;;;;;5.63;1.60;;;26.00;47.50;;;;;;5109578;27;45192;-70
2022/08/02 07:41:50;;;;;;;5.13;1.55;;;26.00;50.90;;;;;;5110053;27;45241;-70
2022/08/02 07:44:17;;;;;;;7.75;1.88;;;26.00;51.50;;;;;;5109641;27;45207;-70
2022/08/02 07:46:44;;;;;;;3.42;1.95;;;26.00;53.00;;;;;;5109735;27;45222;-70
2022/08/02 07:49:12;;;;;;;2.78;1.73;;;25.90;53.50;;;;;;5109691;27;45276;-70
2022/08/02 07:51:39;;;;;;;1.83;1.67;;;25.90;53.60;;;;;;5109945;27;45273;-70
2022/08/02 07:54:06;;;;;;;8.38;1.90;;;25.90;53.20;;;;;;5108386;27;45233;-71
2022/08/02 07:56:34;;;;;;;2.47;1.75;;;25.90;53.20;;;;;;5109300;27;45269;-71
2022/08/02 07:59:01;;;;;;;1.77;1.38;;;25.90;53.00;;;;;;5109698;27;45221;-72
2022/08/02 08:01:28;;;;;;;1.48;1.35;;;25.90;53.20;;;;;;5109840;27;45342;-71
2022/08/02 08:03:55;;;;;;;5.03;1.70;;;25.90;54.50;;;;;;5109150;27;45555;-72
2022/08/02 08:06:22;;;;;;;2.55;1.60;;;25.90;54.50;;;;;;5109210;27;45273;-72
2022/08/02 08:08:49;;;;;;;1.77;1.45;;;25.90;54.60;;;;;;5109370;27;45116;-72
2022/08/02 08:11:16;;;;;;;1.70;1.60;;;25.90;54.60;;;;;;5109530;27;45197;-72
2022/08/02 08:13:44;;;;;;;2.15;1.85;;;25.90;54.10;;;;;;5108815;27;45475;-71
2022/08/02 08:16:11;;;;;;;3.28;1.58;;;25.90;54.30;;;;;;5108884;27;45273;-70
2022/08/02 08:18:37;;;;;;;1.60;1.50;;;25.90;54.30;;;;;;5108861;27;45252;-71
2022/08/02 08:21:04;;;;;;;1.63;1.52;;;26.00;54.30;;;;;;5109171;27;45272;-71
2022/08/02 08:23:31;;;;;;;1.48;1.38;;;25.90;54.30;;;;;;5108924;27;46767;-70
2022/08/02 08:25:58;;;;;;;2.13;1.85;;;26.00;54.00;;;;;;5109139;27;45401;-71
2022/08/02 08:28:25;;;;;;;3.05;1.58;;;26.00;54.70;;;;;;5109078;27;45338;-71
2022/08/02 08:30:53;;;;;;;2.33;1.80;;;26.00;54.40;;;;;;5108820;27;45404;-71
2022/08/02 08:33:20;;;;;;;1.75;1.48;;;26.10;54.20;;;;;;5108889;27;46338;-70
2022/08/02 08:35:47;;;;;;;6.68;1.33;;;26.10;53.40;;;;;;5108868;27;46426;-71
2022/08/02 08:38:15;;;;;;;1.75;1.65;;;26.10;53.50;;;;;;5108923;27;45349;-71
2022/08/02 08:40:43;;;;;;;2.17;1.55;;;26.10;53.50;;;;;;5109521;27;45545;-71
2022/08/02 08:43:12;;;;;;;1.90;1.60;;;26.10;53.20;;;;;;5108857;27;45659;-72
2022/08/02 08:45:39;;;;;;;2.15;1.55;;;26.10;52.90;;;;;;5108844;27;45380;-72
2022/08/02 08:48:11;;;;;;;3.25;1.50;;;26.20;52.40;;;;;;5109154;27;45242;-71
2022/08/02 08:50:38;;;;;;;1.38;1.27;;;26.20;52.70;;;;;;5109096;27;45308;-71
2022/08/02 08:53:06;;;;;;;1.50;1.40;;;26.20;52.30;;;;;;5108724;27;46214;-71
2022/08/02 08:55:35;;;;;;;1.75;1.60;;;26.20;52.80;;;;;;5108383;27;45217;-71
2022/08/02 08:58:03;;;;;;;1.58;1.48;;;26.30;53.50;;;;;;5108796;27;45140;-71
2022/08/02 09:00:30;;;;;;;1.67;1.50;;;26.30;52.90;;;;;;5108938;27;45249;-70
2022/08/02 09:02:57;;;;;;;3.20;1.60;;;26.30;52.30;;;;;;5108782;27;45297;-70
2022/08/02 09:05:25;;;;;;;1.77;1.65;;;26.30;52.30;;;;;;5108262;27;45275;-71
2022/08/02 09:07:53;;;;;;;1.55;1.40;;;26.40;52.30;;;;;;5107924;27;45254;-70
2022/08/02 09:10:36;;;;;;;3.80;1.70;;;26.40;52.40;;;;;;5108805;27;45345;-71
2022/08/02 09:13:07;;;;;;;2.28;1.60;;;26.30;52.30;;;;;;5107745;27;47523;-70
2022/08/02 09:15:34;;;;;;;3.05;1.77;;;26.30;52.10;;;;;;5107820;27;45219;-71
2022/08/02 09:18:02;;;;;;;4.30;1.60;;;26.40;52.10;;;;;;5108323;27;45138;-71
2022/08/02 09:20:30;;;;;;;4.65;2.05;;;26.40;51.70;;;;;;5108764;27;45407;-70
2022/08/02 09:23:05;;;;;;;2.95;1.45;;;26.30;51.80;;;;;;5107731;27;45240;-70
2022/08/02 09:25:32;;;;;;;5.57;1.73;;;26.40;51.70;;;;;;5106961;27;45347;-70
2022/08/02 09:27:59;;;;;;;1.88;1.42;;;26.40;51.30;;;;;;5107853;27;45200;-71
2022/08/02 09:30:26;;;;;;;3.35;1.50;;;26.40;51.00;;;;;;5107765;27;45400;-71
2022/08/02 09:32:53;;;;;;;3.10;1.48;;;26.40;51.50;;;;;;5107647;27;45508;-70
2022/08/02 09:35:35;;;;;;;1.55;1.45;;;26.40;51.40;;;;;;5107851;27;45252;-71
2022/08/02 09:38:09;;;;;;;2.40;1.50;;;26.40;51.70;;;;;;5107788;27;45213;-71
2022/08/02 09:40:36;;;;;;;3.67;1.50;;;26.40;51.50;;;;;;5108055;27;45186;-70
2022/08/02 09:43:03;;;;;;;2.65;1.40;;;26.50;51.00;;;;;;5107614;27;46685;-71
2022/08/02 09:45:33;;;;;;;3.40;1.58;;;26.40;50.60;;;;;;5107775;27;45321;-71
2022/08/02 09:48:01;;;;;;;2.03;1.50;;;26.40;50.20;;;;;;5107589;27;45256;-71
2022/08/02 09:50:28;;;;;;;1.80;1.70;;;26.40;50.70;;;;;;5107974;27;45195;-71
2022/08/02 09:52:57;;;;;;;3.47;1.73;;;26.50;50.50;;;;;;5107490;27;45415;-71
2022/08/02 09:55:24;;;;;;;2.45;1.60;;;26.60;50.30;;;;;;5107168;27;45276;-72
2022/08/02 09:57:51;;;;;;;1.45;1.27;;;26.60;50.10;;;;;;5107759;27;45244;-71
2022/08/02 10:00:18;;;;;;;1.50;1.40;;;26.60;50.00;;;;;;5107844;27;45197;-71
2022/08/02 10:03:06;;;;;;;1.77;1.65;;;26.60;50.20;;;;;;5107432;27;45073;-71
2022/08/02 10:05:48;;;;;;;2.25;1.67;;;26.70;50.40;;;;;;5107119;27;45265;-70
2022/08/02 10:08:16;;;;;;;1.70;1.60;;;26.70;50.60;;;;;;5107499;27;45302;-71
2022/08/02 10:10:43;;;;;;;1.30;1.20;;;26.70;50.10;;;;;;5107397;27;45336;-70
2022/08/02 10:13:10;;;;;;;1.35;1.25;;;26.80;49.90;;;;;;5107588;27;47656;-71
2022/08/02 10:15:37;;;;;;;1.85;1.40;;;26.80;49.70;;;;;;5107286;27;45192;-71
2022/08/02 10:18:04;;;;;;;1.92;1.65;;;26.80;49.70;;;;;;5107327;27;45394;-70
2022/08/02 10:20:31;;;;;;;1.77;1.52;;;26.80;49.40;;;;;;5105058;27;45368;-70
2022/08/02 10:22:58;;;;;;;1.63;1.52;;;26.80;49.70;;;;;;5106598;27;46641;-70
2022/08/02 10:25:26;;;;;;;2.63;1.50;;;26.90;49.90;;;;;;5106443;27;45165;-71
2022/08/02 10:27:53;;;;;;;1.90;1.52;;;26.90;49.50;;;;;;5107090;27;45186;-70
2022/08/02 10:30:20;;;;;;;2.17;1.60;;;26.90;49.50;;;;;;5103222;27;45470;-71
2022/08/02 10:32:47;;;;;;;2.60;1.58;;;27.00;49.40;;;;;;5107042;27;46508;-70
2022/08/02 10:35:16;;;;;;;1.50;1.40;;;27.00;49.40;;;;;;5106741;27;45205;-70
2022/08/02 10:37:44;;;;;;;1.70;1.55;;;27.00;49.80;;;;;;5106459;27;45328;-71
2022/08/02 10:40:22;;;;;;;1.70;1.60;;;27.10;49.10;;;;;;5106615;27;45408;-70
2022/08/02 10:42:51;;;;;;;1.63;1.50;;;27.10;49.00;;;;;;5106730;27;46814;-71
2022/08/02 10:45:19;;;;;;;1.30;1.25;;;27.20;48.00;;;;;;5106629;27;45180;-70
2022/08/02 10:48:00;;;;;;;2.05;1.50;;;27.20;47.90;;;;;;5106578;27;45296;-70
2022/08/02 10:50:54;;;;;;;1.80;1.60;;;27.20;47.90;;;;;;5107087;27;45147;-70
2022/08/02 10:53:23;;;;;;;1.27;1.15;;;27.20;48.20;;;;;;5106606;27;46780;-71
2022/08/02 10:55:50;;;;;;;2.38;1.45;;;27.20;47.50;;;;;;5106167;27;45309;-70
2022/08/02 10:58:20;;;;;;;1.60;1.30;;;27.30;48.60;;;;;;5106737;27;45299;-71
2022/08/02 11:00:47;;;;;;;3.45;1.40;;;27.40;47.70;;;;;;5106930;27;45295;-70
2022/08/02 11:03:35;;;;;;;1.70;1.60;;;27.50;48.30;;;;;;5106439;27;45318;-71
2022/08/02 11:06:02;;;;;;;2.97;1.38;;;27.50;46.60;;;;;;5106446;27;45248;-70
2022/08/02 11:08:29;;;;;;;1.45;1.35;;;27.60;46.90;;;;;;5106664;27;45220;-71
2022/08/02 11:10:59;;;;;;;2.47;1.20;;;27.70;47.00;;;;;;5107118;27;45177;-70
2022/08/02 11:13:28;;;;;;;1.67;1.20;;;27.70;46.80;;;;;;5106369;27;46613;-70
2022/08/02 11:16:07;;;;;;;2.75;1.40;;;27.70;47.10;;;;;;5099099;27;45516;-71
2022/08/02 11:19:04;;;;;;;1.75;1.65;;;27.80;46.90;;;;;;5097329;27;45379;-70
2022/08/02 11:21:31;;;;;;;1.52;1.42;;;27.90;47.40;;;;;;5106356;27;45369;-69
2022/08/02 11:24:24;;;;;;;2.08;1.40;;;28.00;46.50;;;;;;5107328;27;46579;-70
2022/08/02 11:26:51;;;;;;;2.58;1.40;;;28.00;46.40;;;;;;5106926;27;45306;-70
2022/08/02 11:29:22;;;;;;;1.35;1.27;;;28.10;46.70;;;;;;5107068;27;45364;-70
2022/08/02 11:31:49;;;;;;;2.33;1.30;;;28.20;46.60;;;;;;5089490;27;45238;-70
2022/08/02 11:34:16;;;;;;;1.80;1.70;;;28.40;46.80;;;;;;5085822;28;46370;-70
2022/08/02 11:36:44;;;;;;;1.58;1.48;;;28.30;45.50;;;;;;5086293;28;45306;-70
2022/08/02 11:39:11;;;;;;;2.50;1.30;;;28.30;45.70;;;;;;5085781;28;45258;-70
2022/08/02 11:41:38;;;;;;;3.00;1.23;;;28.40;45.60;;;;;;5086082;28;45165;-70
2022/08/02 11:44:05;;;;;;;1.52;1.42;;;28.50;46.10;;;;;;5086020;28;47335;-70
2022/08/02 11:46:33;;;;;;;2.28;1.55;;;28.70;45.90;;;;;;5085822;27;45324;-70
2022/08/02 11:49:12;;;;;;;2.60;1.50;;;28.70;45.70;;;;;;5089399;28;45150;-70
2022/08/02 11:51:39;;;;;;;3.10;1.48;;;28.80;45.60;;;;;;5089495;28;45539;-70
2022/08/02 11:54:05;;;;;;;3.95;1.50;;;28.90;45.40;;;;;;5089155;28;46643;-71
2022/08/02 11:56:32;;;;;;;1.60;1.50;;;29.00;45.50;;;;;;5089170;28;45268;-71
2022/08/02 11:59:03;;;;;;;3.40;1.52;;;29.10;45.40;;;;;;5088970;28;45299;-70
2022/08/02 12:01:31;;;;;;;2.10;1.33;;;29.10;45.30;;;;;;5089286;28;45388;-71
2022/08/02 12:04:00;;;;;;;1.52;1.42;;;29.20;45.40;;;;;;5089537;28;47552;-70
2022/08/02 12:06:28;;;;;;;3.05;1.50;;;29.20;45.20;;;;;;5089234;28;45237;-71
2022/08/02 12:08:59;;;;;;;1.60;1.50;;;29.30;45.30;;;;;;5089249;28;45245;-70
2022/08/02 12:11:26;;;;;;;1.88;1.60;;;29.40;45.20;;;;;;5089387;28;45447;-71
2022/08/02 12:13:53;;;;;;;1.27;1.17;;;29.50;45.20;;;;;;5088795;28;45319;-70
2022/08/02 12:19:18;;;;;;;2.53;1.20;;;29.60;45.20;;;;;;5045459;28;45328;-71
2022/08/02 12:21:45;;;;;;;1.77;1.40;;;29.60;45.10;;;;;;5089161;28;45285;-71
2022/08/02 12:24:12;;;;;;;1.40;1.30;;;29.70;45.10;;;;;;5088763;28;45232;-71
2022/08/02 12:26:43;;;;;;;3.20;1.20;;;29.70;45.00;;;;;;5088736;28;45201;-71
2022/08/02 12:29:10;;;;;;;1.35;1.25;;;29.80;45.10;;;;;;5085757;28;45171;-71
2022/08/02 12:31:41;;;;;;;1.38;1.27;;;29.90;45.10;;;;;;5085320;28;45181;-71
2022/08/02 12:34:17;;;;;;;1.45;1.35;;;29.90;45.00;;;;;;5088529;28;45467;-71
2022/08/02 12:36:44;;;;;;;1.33;1.23;;;30.00;45.00;;;;;;5088844;28;45317;-71
2022/08/02 12:39:12;;;;;;;1.20;1.10;;;30.00;44.90;;;;;;5079682;28;45310;-71
2022/08/02 12:41:38;;;;;;;1.10;1.10;;;30.10;44.90;;;;;;5068537;28;45182;-71
2022/08/02 12:44:07;;;;;;;1.50;1.40;;;30.20;44.80;;;;;;5068156;28;45227;-71
2022/08/02 12:46:34;;;;;;;2.35;1.30;;;30.20;44.80;;;;;;5067055;28;45259;-71
2022/08/02 12:49:01;;;;;;;2.28;1.48;;;30.30;44.80;;;;;;5068298;28;45170;-71
2022/08/02 12:51:32;;;;;;;1.65;1.30;;;30.30;44.70;;;;;;5068328;28;45124;-71
2022/08/02 12:54:12;;;;;;;1.90;1.13;;;30.40;44.70;;;;;;5067866;28;45389;-71
2022/08/02 12:56:39;;;;;;;1.20;1.10;;;30.40;44.50;;;;;;5067955;28;45182;-71
2022/08/02 12:59:06;;;;;;;1.85;1.33;;;30.50;44.40;;;;;;5068259;28;45278;-71
2022/08/02 13:01:33;;;;;;;1.42;1.33;;;30.50;44.10;;;;;;5051974;28;45497;-71